Time;durP1;ratioP1;P1;durP2;ratioP2;P2;SDS_P1;SDS_P2;PMS_P1;PMS_P2;Temp;Humidity;BMP_temperature;BMP_pressure;BME280_temperature;BME280_humidity;BME280_pressure;Samples;Min_cycle;Max_cycle;Signal;HPM_P1;HPM_P2
2024/01/02 00:01:44;;;;;;;23.40;3.92;;;;;;;-146.27;91.77;33190.19;5056245;28;20428;-70
2024/01/02 00:04:09;;;;;;;14.70;3.08;;;;;;;-146.27;91.80;33186.22;5060577;28;20066;-70
2024/01/02 00:06:35;;;;;;;4.85;2.30;;;;;;;-146.27;92.41;33190.19;5064193;28;20064;-72
2024/01/02 00:09:00;;;;;;;10.93;3.40;;;;;;;-146.27;92.58;33210.03;5060320;28;20049;-72
2024/01/02 00:11:25;;;;;;;12.38;3.13;;;;;;;-146.27;92.66;33223.91;5067799;28;20082;-71
2024/01/02 00:13:51;;;;;;;12.27;3.88;;;;;;;-146.27;92.63;33192.16;5065765;28;20075;-72
2024/01/02 00:16:18;;;;;;;12.05;3.13;;;;;;;-146.27;93.47;33229.88;5073748;28;20069;-72
2024/01/02 00:18:43;;;;;;;5.82;2.50;;;;;;;-146.27;93.20;33212.00;5064541;28;20107;-72
2024/01/02 00:21:08;;;;;;;10.25;2.75;;;;;;;-146.27;93.12;33239.78;5071610;28;20111;-72
2024/01/02 00:23:34;;;;;;;9.85;2.58;;;;;;;-146.27;93.44;33233.84;5071850;28;20079;-72
2024/01/02 00:25:59;;;;;;;8.68;2.90;;;;;;;-146.27;92.57;33172.34;5069891;28;20417;-71
2024/01/02 00:28:24;;;;;;;6.93;2.78;;;;;;;-146.27;92.48;33180.28;5054269;28;20142;-72
2024/01/02 00:30:50;;;;;;;10.07;2.33;;;;;;;-146.27;92.44;33168.38;5058614;28;20104;-72
2024/01/02 00:33:15;;;;;;;9.60;2.67;;;;;;;-146.27;92.64;33170.34;5069920;28;20023;-72
2024/01/02 00:35:41;;;;;;;6.60;2.45;;;;;;;-146.27;93.14;33212.00;5070595;28;20031;-72
2024/01/02 00:38:08;;;;;;;12.38;2.53;;;;;;;-146.27;92.87;33148.53;5065873;28;20041;-72
2024/01/02 00:40:34;;;;;;;9.77;2.28;;;;;;;-146.27;92.42;33152.50;5064284;28;20024;-72
2024/01/02 00:42:59;;;;;;;6.82;2.08;;;;;;;-146.27;93.13;33196.13;5072691;28;20105;-72
2024/01/02 00:45:25;;;;;;;12.30;2.22;;;;;;;-146.27;92.95;33146.53;5070409;28;20081;-71
2024/01/02 00:47:51;;;;;;;7.88;1.75;;;;;;;-146.27;92.92;33170.34;5065370;28;20036;-71
2024/01/02 00:50:17;;;;;;;6.30;2.30;;;;;;;-146.27;92.72;33160.44;5051060;28;20472;-71
2024/01/02 00:52:43;;;;;;;8.50;2.10;;;;;;;-146.27;93.08;33194.16;5062530;28;20032;-71
2024/01/02 00:55:09;;;;;;;7.55;1.77;;;;;;;-146.27;93.44;33176.31;5062736;28;20020;-72
2024/01/02 00:57:34;;;;;;;6.57;1.55;;;;;;;-146.27;93.46;33210.03;5064950;28;20032;-71
2024/01/02 01:00:00;;;;;;;13.73;2.08;;;;;;;-146.27;93.30;33144.56;5068143;28;20153;-72
2024/01/02 01:02:27;;;;;;;4.15;1.60;;;;;;;-146.27;93.04;33170.34;5069326;28;20364;-71
2024/01/02 01:04:52;;;;;;;7.65;1.30;;;;;;;-146.27;93.61;33219.94;5063465;28;20469;-72
2024/01/02 01:07:17;;;;;;;6.03;1.85;;;;;;;-146.27;94.00;33215.97;5070282;28;20027;-71
2024/01/02 01:09:43;;;;;;;7.50;1.40;;;;;;;-146.27;93.92;33164.41;5071204;28;20135;-71
2024/01/02 01:12:09;;;;;;;12.45;1.80;;;;;;;-146.27;93.95;33194.16;5073221;28;20071;-72
2024/01/02 01:14:35;;;;;;;8.20;1.50;;;;;;;-146.27;93.92;33176.31;5066905;28;20476;-71
2024/01/02 01:17:01;;;;;;;10.85;1.40;;;;;;;-146.27;93.22;33029.47;5072034;28;20472;-72
2024/01/02 01:19:26;;;;;;;5.57;1.60;;;;;;;-146.27;93.61;33168.38;5063187;28;20029;-72
2024/01/02 01:21:52;;;;;;;8.02;1.27;;;;;;;-146.27;94.14;33176.31;5069040;28;20111;-71
2024/01/02 01:24:18;;;;;;;7.72;1.88;;;;;;;-146.27;94.27;33200.09;5066219;28;20060;-73
2024/01/02 01:26:44;;;;;;;4.53;1.20;;;;;;;-146.27;94.00;33166.38;5072339;28;20512;-72
2024/01/02 01:29:09;;;;;;;2.17;1.40;;;;;;;-146.27;93.98;33172.34;5065185;28;20029;-72
2024/01/02 01:31:35;;;;;;;3.55;1.20;;;;;;;-146.27;93.87;33152.50;5070594;28;20035;-72
2024/01/02 01:34:00;;;;;;;7.82;1.30;;;;;;;-146.27;93.71;33160.44;5065463;28;20040;-76
2024/01/02 01:36:26;;;;;;;4.55;1.35;;;;;;;-146.27;93.84;33176.31;5064849;28;20032;-72
2024/01/02 01:38:51;;;;;;;3.00;1.33;;;;;;;-146.27;93.54;33134.63;5068135;28;20017;-72
2024/01/02 01:41:17;;;;;;;4.80;1.17;;;;;;;-146.27;93.47;33077.09;5071835;28;20032;-72
2024/01/02 01:43:43;;;;;;;4.18;1.48;;;;;;;-146.27;94.18;33160.44;5080538;28;20042;-72
2024/01/02 01:46:08;;;;;;;4.20;1.13;;;;;;;-146.27;94.05;33118.75;5075846;28;20396;-72
2024/01/02 01:48:34;;;;;;;5.95;1.00;;;;;;;-146.27;93.54;33120.75;5064193;28;20029;-72
2024/01/02 01:51:00;;;;;;;2.83;1.10;;;;;;;-146.27;93.76;33098.94;5060451;28;20025;-72
2024/01/02 01:53:26;;;;;;;2.20;1.38;;;;;;;-146.27;94.35;33085.03;5068976;28;20468;-72
2024/01/02 01:55:51;;;;;;;4.93;1.40;;;;;;;-146.27;94.15;33128.69;5070622;28;20190;-72
2024/01/02 01:58:17;;;;;;;4.85;1.35;;;;;;;-146.27;93.77;33100.91;5071923;28;20045;-72
2024/01/02 02:00:43;;;;;;;4.38;1.50;;;;;;;-146.27;94.17;33136.63;5064039;28;20059;-72
2024/01/02 02:03:10;;;;;;;4.95;1.25;;;;;;;-146.27;94.10;33120.75;5067033;28;20090;-72
2024/01/02 02:05:36;;;;;;;4.43;1.10;;;;;;;-146.27;94.13;33160.44;5060616;28;21601;-72
2024/01/02 02:08:01;;;;;;;2.95;1.42;;;;;;;-146.27;94.00;33089.00;5053518;28;20139;-72
2024/01/02 02:10:28;;;;;;;1.65;1.00;;;;;;;-146.27;94.27;33116.78;5051408;28;20028;-73
2024/01/02 02:12:54;;;;;;;2.17;1.00;;;;;;;-146.27;94.35;33132.66;5066695;28;20024;-73
2024/01/02 02:15:19;;;;;;;2.10;1.08;;;;;;;-146.27;94.67;33168.38;5078145;28;20357;-72
2024/01/02 02:17:45;;;;;;;2.75;1.23;;;;;;;-146.27;94.60;33089.00;5063615;28;20024;-72
2024/01/02 02:20:10;;;;;;;4.22;0.90;;;;;;;-146.27;94.14;33055.28;5069264;28;20376;-72
2024/01/02 02:22:37;;;;;;;4.22;1.10;;;;;;;-146.27;94.03;33027.50;5067837;28;20082;-72
2024/01/02 02:25:04;;;;;;;2.08;1.10;;;;;;;-146.27;94.44;33081.06;5074299;28;20064;-72
2024/01/02 02:27:30;;;;;;;3.85;1.30;;;;;;;-146.27;94.65;33094.97;5069737;28;20063;-72
2024/01/02 02:29:56;;;;;;;6.63;1.20;;;;;;;-146.27;94.47;33089.00;5063725;28;20021;-72
2024/01/02 02:32:21;;;;;;;5.95;1.30;;;;;;;-146.27;94.57;33049.31;5056193;28;20031;-71
2024/01/02 02:34:47;;;;;;;4.70;1.38;;;;;;;-146.27;94.59;33100.91;5070045;28;20020;-72
2024/01/02 02:37:12;;;;;;;2.50;1.10;;;;;;;-146.27;95.22;33045.34;5061524;28;20029;-71
2024/01/02 02:39:37;;;;;;;1.33;1.10;;;;;;;-146.27;94.80;33033.44;5067409;28;20032;-71
2024/01/02 02:42:03;;;;;;;3.83;1.13;;;;;;;-146.27;94.82;32983.84;5066330;28;20028;-71
2024/01/02 02:44:28;;;;;;;2.30;1.33;;;;;;;-146.27;94.95;33055.28;5068384;28;20035;-72
2024/01/02 02:46:54;;;;;;;3.85;1.13;;;;;;;-146.27;95.18;33106.84;5085482;28;20103;-71
2024/01/02 02:49:19;;;;;;;0.93;0.93;;;;;;;-146.27;95.40;33065.19;5065500;28;20090;-71
2024/01/02 02:51:44;;;;;;;2.90;1.40;;;;;;;-146.27;95.58;33027.50;5065383;28;20052;-71
2024/01/02 02:54:10;;;;;;;1.83;1.30;;;;;;;-146.27;94.89;33017.56;5061386;28;20032;-71
2024/01/02 02:56:35;;;;;;;3.63;1.33;;;;;;;-146.27;95.47;33067.19;5069734;28;20077;-71
2024/01/02 02:59:01;;;;;;;4.60;1.38;;;;;;;-146.27;95.52;33057.25;5061802;28;20436;-71
2024/01/02 03:01:26;;;;;;;1.55;1.45;;;;;;;-146.27;94.76;32914.41;5070875;28;20129;-71
2024/01/02 03:03:51;;;;;;;1.50;1.30;;;;;;;-146.27;95.31;32977.91;5068665;28;20040;-71
2024/01/02 03:06:17;;;;;;;1.25;1.15;;;;;;;-146.27;94.90;32971.94;5070164;28;20024;-71
2024/01/02 03:08:42;;;;;;;2.10;1.52;;;;;;;-146.27;95.28;32966.00;5062803;28;20442;-72
2024/01/02 03:11:07;;;;;;;3.03;1.33;;;;;;;-146.27;95.76;33079.09;5069660;28;20046;-71
2024/01/02 03:13:33;;;;;;;3.55;1.30;;;;;;;-146.27;95.69;33017.56;5067328;28;20028;-71
2024/01/02 03:15:58;;;;;;;3.35;1.33;;;;;;;-146.27;95.88;33029.47;5051105;28;20098;-71
2024/01/02 03:18:23;;;;;;;2.88;1.85;;;;;;;-146.27;95.73;33045.34;5069740;28;20035;-72
2024/01/02 03:20:49;;;;;;;6.32;1.92;;;;;;;-146.27;95.88;32993.78;5067457;28;20028;-72
2024/01/02 03:23:14;;;;;;;2.80;1.70;;;;;;;-146.27;96.48;33083.06;5066553;28;20029;-71
2024/01/02 03:25:40;;;;;;;4.22;1.67;;;;;;;-146.27;96.20;32991.78;5067876;28;20727;-79
2024/01/02 03:28:05;;;;;;;2.40;1.52;;;;;;;-146.27;96.12;32997.75;5059901;28;20020;-72
2024/01/02 03:30:31;;;;;;;2.10;1.08;;;;;;;-146.27;97.39;32997.75;5058397;28;20032;-72
2024/01/02 03:32:56;;;;;;;1.10;1.00;;;;;;;-146.27;97.21;33029.47;5069714;28;20451;-71
2024/01/02 03:35:21;;;;;;;1.92;1.38;;;;;;;-146.27;97.55;32995.75;5070649;28;20078;-72
2024/01/02 03:37:47;;;;;;;3.78;1.50;;;;;;;-146.27;97.01;32966.00;5064918;28;20472;-72
2024/01/02 03:40:14;;;;;;;2.08;1.30;;;;;;;-146.27;96.20;32900.53;5061164;28;20067;-72
2024/01/02 03:42:40;;;;;;;1.17;1.08;;;;;;;-146.27;96.20;32886.63;5065842;28;20162;-72
2024/01/02 03:45:06;;;;;;;1.00;0.90;;;;;;;-146.27;97.62;32948.13;5067301;28;20115;-72
2024/01/02 03:47:31;;;;;;;2.88;1.50;;;;;;;-146.27;97.29;32908.47;5063766;28;20017;-72
2024/01/02 03:49:57;;;;;;;1.13;1.02;;;;;;;-146.27;98.59;32969.97;5072043;28;20036;-71
2024/01/02 03:52:22;;;;;;;1.80;1.40;;;;;;;-146.27;97.95;32936.25;5059700;28;20642;-72
2024/01/02 03:54:47;;;;;;;1.65;1.23;;;;;;;-146.27;98.44;32811.25;5063706;28;20055;-72
2024/01/02 03:57:13;;;;;;;0.98;0.90;;;;;;;-146.27;99.39;32934.25;5072236;28;20032;-72
2024/01/02 03:59:38;;;;;;;1.60;1.20;;;;;;;-146.27;99.47;32833.06;5065636;28;20048;-72
2024/01/02 04:02:04;;;;;;;1.15;1.05;;;;;;;-146.27;98.71;32739.84;5077940;28;20032;-72
2024/01/02 04:04:29;;;;;;;1.13;1.02;;;;;;;-146.27;98.96;32795.38;5069938;28;20053;-72
2024/01/02 04:06:54;;;;;;;1.20;1.10;;;;;;;-146.27;98.66;32902.50;5068744;28;20028;-72
2024/01/02 04:09:20;;;;;;;1.25;1.10;;;;;;;-146.27;98.93;32751.75;5066729;28;20020;-72
2024/01/02 04:11:45;;;;;;;3.42;1.80;;;;;;;-146.27;98.33;32628.75;5067273;28;20025;-72
2024/01/02 04:14:10;;;;;;;1.50;1.27;;;;;;;-146.27;98.90;32791.41;5067866;28;20478;-71
2024/01/02 04:16:36;;;;;;;1.92;1.42;;;;;;;-146.27;99.62;32789.44;5067153;28;20392;-72
2024/01/02 04:19:02;;;;;;;1.58;1.48;;;;;;;-146.27;99.13;32759.66;5067191;28;20559;-71
2024/01/02 04:21:28;;;;;;;2.00;1.80;;;;;;;-146.27;99.08;32716.03;5070781;28;20032;-72
2024/01/02 04:23:53;;;;;;;4.13;1.70;;;;;;;-146.27;100.00;32779.50;5065046;28;20511;-71
2024/01/02 04:26:18;;;;;;;2.10;1.90;;;;;;;-146.27;100.00;32731.91;5068082;28;20024;-71
2024/01/02 04:28:43;;;;;;;1.70;1.60;;;;;;;-146.27;100.00;32727.94;5066337;28;20037;-72
2024/01/02 04:31:09;;;;;;;2.47;2.10;;;;;;;-146.27;99.21;32706.09;5067734;28;20032;-72
2024/01/02 04:33:35;;;;;;;2.35;2.15;;;;;;;-146.27;98.98;32547.41;5070236;28;20032;-72
2024/01/02 04:36:00;;;;;;;4.75;3.28;;;;;;;-146.27;98.60;32589.06;5072510;28;20058;-72
2024/01/02 04:38:25;;;;;;;3.40;2.53;;;;;;;-146.27;99.28;32597.00;5070386;28;20423;-72
2024/01/02 04:40:51;;;;;;;2.78;2.42;;;;;;;-146.27;98.91;32545.44;5070203;28;20126;-72
2024/01/02 04:43:16;;;;;;;2.42;2.03;;;;;;;-146.27;98.50;32513.69;5069533;28;20029;-71
2024/01/02 04:45:42;;;;;;;1.95;1.70;;;;;;;-146.27;99.08;32595.03;5071727;28;20035;-71
2024/01/02 04:48:08;;;;;;;2.40;1.92;;;;;;;-146.27;98.00;32466.06;5072010;28;20027;-71
2024/01/02 04:50:34;;;;;;;2.35;1.73;;;;;;;-146.27;98.19;32448.22;5066436;28;20032;-72
2024/01/02 04:52:59;;;;;;;1.92;1.80;;;;;;;-146.27;98.19;32456.16;5070548;28;20127;-71
2024/01/02 04:55:24;;;;;;;4.10;2.05;;;;;;;-146.27;98.66;32499.81;5070849;28;20117;-72
2024/01/02 04:57:50;;;;;;;8.70;2.20;;;;;;;-146.27;98.75;32470.03;5068144;28;20079;-72
2024/01/02 05:00:15;;;;;;;5.90;1.90;;;;;;;-146.27;98.52;32513.69;5073170;28;20039;-72
2024/01/02 05:02:41;;;;;;;2.88;1.50;;;;;;;-146.27;99.54;32414.50;5075805;28;20107;-72
2024/01/02 05:05:06;;;;;;;3.97;1.67;;;;;;;-146.27;99.56;32448.22;5071280;28;20491;-72
2024/01/02 05:07:31;;;;;;;11.98;1.83;;;;;;;-146.27;99.67;32366.91;5069450;28;20491;-72
2024/01/02 05:09:57;;;;;;;13.02;2.35;;;;;;;-146.27;99.21;32289.53;5071696;28;20051;-72
2024/01/02 05:12:23;;;;;;;14.40;2.20;;;;;;;-146.27;98.52;32204.25;5074964;28;20255;-71
2024/01/02 05:14:48;;;;;;;20.80;2.65;;;;;;;-146.27;98.74;32297.47;5066278;28;20520;-71
2024/01/02 05:17:14;;;;;;;23.95;3.10;;;;;;;-146.27;100.00;32374.81;5069099;28;20114;-71
2024/01/02 05:19:39;;;;;;;27.30;4.35;;;;;;;-146.27;99.18;32152.66;5064283;28;20284;-71
2024/01/02 05:22:04;;;;;;;29.80;4.57;;;;;;;-146.27;99.33;32212.16;5062419;28;20111;-71
2024/01/02 05:24:30;;;;;;;34.42;4.65;;;;;;;-146.27;100.00;32291.50;5061685;28;20094;-71
2024/01/02 05:26:56;;;;;;;29.77;3.97;;;;;;;-146.27;100.00;32154.66;5061504;28;20478;-72
2024/01/02 05:29:21;;;;;;;40.20;4.32;;;;;;;-146.27;99.75;32206.22;5068682;28;20033;-70
2024/01/02 05:31:46;;;;;;;39.05;4.28;;;;;;;-146.27;100.00;32176.47;5070251;28;20038;-71
2024/01/02 05:34:12;;;;;;;22.08;4.10;;;;;;;-146.27;100.00;32188.38;5068134;28;20055;-72
2024/01/02 05:36:37;;;;;;;31.67;3.38;;;;;;;-146.27;99.99;32095.16;5062604;28;20480;-71
2024/01/02 05:39:02;;;;;;;34.40;4.00;;;;;;;-146.27;98.63;31956.31;5063006;28;20507;-71
2024/01/02 05:41:28;;;;;;;36.92;4.10;;;;;;;-146.27;99.27;32093.16;5072464;28;20039;-71
2024/01/02 05:43:53;;;;;;;23.55;4.90;;;;;;;-146.27;98.63;31970.19;5069406;28;20471;-71
2024/01/02 05:46:19;;;;;;;27.80;3.83;;;;;;;-146.27;98.57;32101.09;5071239;28;20032;-71
2024/01/02 05:48:44;;;;;;;33.05;3.65;;;;;;;-146.27;98.83;32103.06;5073700;28;20051;-71
2024/01/02 05:51:09;;;;;;;19.00;3.22;;;;;;;-146.27;98.57;32097.13;5077659;28;20024;-70
2024/01/02 05:53:35;;;;;;;33.45;4.63;;;;;;;-146.27;99.29;32073.31;5069243;28;20400;-71
2024/01/02 05:56:01;;;;;;;26.65;3.10;;;;;;;-146.27;98.26;31994.00;5070904;28;20051;-71
2024/01/02 05:58:26;;;;;;;16.95;2.65;;;;;;;-146.27;97.03;31928.53;5066156;28;22135;-71
2024/01/02 06:00:52;;;;;;;29.45;3.15;;;;;;;-146.27;97.65;31962.25;5065654;28;20025;-71
2024/01/02 06:03:17;;;;;;;30.65;4.43;;;;;;;-146.27;97.21;31938.44;5067748;28;20075;-71
2024/01/02 06:05:43;;;;;;;22.50;3.55;;;;;;;-146.27;96.99;31922.59;5058271;28;20500;-71
2024/01/02 06:08:09;;;;;;;24.17;3.50;;;;;;;-146.27;97.17;31986.06;5065959;28;20395;-70
2024/01/02 06:10:34;;;;;;;27.88;3.05;;;;;;;-146.27;96.97;31942.41;5065670;28;20052;-70
2024/01/02 06:13:00;;;;;;;38.15;3.78;;;;;;;-146.27;97.29;31982.09;5056840;28;20025;-70
2024/01/02 06:15:25;;;;;;;28.90;3.10;;;;;;;-146.27;97.43;31974.16;5068561;28;20055;-70
2024/01/02 06:17:52;;;;;;;29.58;4.25;;;;;;;-146.27;96.90;32005.88;5069787;28;20078;-71
2024/01/02 06:20:17;;;;;;;41.65;4.10;;;;;;;-146.27;96.08;31972.16;5079783;28;20064;-71
2024/01/02 06:22:43;;;;;;;27.67;3.28;;;;;;;-146.27;96.57;31966.22;5077728;28;20024;-72
2024/01/02 06:25:08;;;;;;;30.45;3.70;;;;;;;-146.27;95.94;31950.34;5067770;28;20550;-72
2024/01/02 06:27:35;;;;;;;34.15;4.50;;;;;;;-146.27;96.30;32005.88;5069543;28;20491;-72
2024/01/02 06:30:02;;;;;;;25.00;3.60;;;;;;;-146.27;95.02;31874.97;5072194;28;20035;-70
2024/01/02 06:32:28;;;;;;;22.92;5.07;;;;;;;-146.27;95.78;32085.22;5065839;28;20031;-70
2024/01/02 06:34:53;;;;;;;25.00;3.72;;;;;;;-146.27;95.50;32029.69;5077569;28;20544;-70
2024/01/02 06:37:18;;;;;;;36.33;5.30;;;;;;;-146.27;95.51;31956.31;5069471;28;20067;-70
2024/01/02 06:39:44;;;;;;;32.05;4.28;;;;;;;-146.27;94.69;31946.38;5071593;28;20056;-70
2024/01/02 06:42:09;;;;;;;34.20;3.97;;;;;;;-146.27;94.69;32001.91;5068640;28;20031;-70
2024/01/02 06:44:34;;;;;;;32.72;4.95;;;;;;;-146.27;95.10;31928.53;5065535;28;20033;-70
2024/01/02 06:47:00;;;;;;;31.48;4.07;;;;;;;-146.27;95.11;31914.66;5066317;28;20056;-71
2024/01/02 06:49:26;;;;;;;29.60;4.47;;;;;;;-146.27;95.47;31986.06;5064860;28;20017;-70
2024/01/02 06:51:51;;;;;;;34.75;4.70;;;;;;;-146.27;94.57;31994.00;5079673;28;20485;-70
2024/01/02 06:54:16;;;;;;;41.33;5.65;;;;;;;-146.27;94.63;31906.72;5062974;28;20024;-70
2024/01/02 06:56:42;;;;;;;41.28;4.82;;;;;;;-146.27;94.47;31936.47;5063263;28;20108;-69
2024/01/02 06:59:07;;;;;;;44.05;5.40;;;;;;;-146.27;94.44;31910.69;5062496;28;20071;-69
2024/01/02 07:01:32;;;;;;;60.30;5.75;;;;;;;-146.27;94.31;31974.16;5069995;28;20104;-70
2024/01/02 07:03:58;;;;;;;39.25;4.55;;;;;;;-146.27;94.58;31958.28;5069226;28;20060;-70
2024/01/02 07:06:23;;;;;;;47.95;5.18;;;;;;;-146.27;95.24;32097.13;5069127;28;20082;-70
2024/01/02 07:08:48;;;;;;;36.30;5.97;;;;;;;-146.27;95.05;31982.09;5064815;28;20058;-71
2024/01/02 07:11:14;;;;;;;46.22;5.70;;;;;;;-146.27;94.07;31920.59;5070029;28;20031;-69
2024/01/02 07:13:39;;;;;;;38.00;4.88;;;;;;;-146.27;94.49;32009.84;5058629;28;20072;-70
2024/01/02 07:16:05;;;;;;;49.45;6.22;;;;;;;-146.27;94.96;31950.34;5067281;28;20028;-70
2024/01/02 07:18:30;;;;;;;43.33;6.20;;;;;;;-146.27;94.68;32039.59;5069780;28;20047;-72
2024/01/02 07:20:59;;;;;;;40.83;5.25;;;;;;;-146.27;95.14;32029.69;5072834;28;20103;-70
2024/01/02 07:23:24;;;;;;;48.80;6.32;;;;;;;-146.27;95.48;32053.50;5065731;28;20460;-71
2024/01/02 07:25:49;;;;;;;42.30;5.82;;;;;;;-146.27;95.39;31986.06;5066079;28;20082;-71
2024/01/02 07:28:15;;;;;;;45.97;5.72;;;;;;;-146.27;94.46;31861.09;5065025;28;20032;-69
2024/01/02 07:30:40;;;;;;;36.03;5.82;;;;;;;-146.27;94.50;31906.72;5065948;28;20039;-69
2024/01/02 07:33:06;;;;;;;36.42;4.68;;;;;;;-146.27;94.56;31974.16;5067814;28;20380;-70
2024/01/02 07:35:31;;;;;;;30.77;5.20;;;;;;;-146.27;94.13;31948.38;5066422;28;20057;-70
2024/01/02 07:37:57;;;;;;;44.55;7.30;;;;;;;-146.27;94.96;31988.03;5065584;28;20384;-70
2024/01/02 07:40:22;;;;;;;31.50;5.80;;;;;;;-146.27;95.68;31994.00;5065847;28;20365;-70
2024/01/02 07:42:47;;;;;;;46.22;6.30;;;;;;;-146.27;95.07;32045.56;5059304;28;20075;-70
2024/01/02 07:45:13;;;;;;;46.80;6.18;;;;;;;-146.27;94.33;31976.13;5053885;28;20066;-70
2024/01/02 07:47:38;;;;;;;49.72;5.78;;;;;;;-146.27;93.36;31896.78;5067560;28;20077;-69
2024/01/02 07:50:04;;;;;;;36.67;5.35;;;;;;;-146.27;93.33;31950.34;5062283;28;20498;-70
2024/01/02 07:52:30;;;;;;;44.70;6.95;;;;;;;-146.27;93.89;31958.28;5052787;28;20370;-69
2024/01/02 07:54:55;;;;;;;37.67;4.60;;;;;;;-146.27;94.14;31974.16;5058730;28;20062;-69
2024/01/02 07:57:21;;;;;;;38.55;5.90;;;;;;;-146.27;93.33;31922.59;5062046;28;20025;-69
2024/01/02 07:59:46;;;;;;;38.33;5.60;;;;;;;-146.27;93.22;31910.69;5062936;28;20105;-69
2024/01/02 08:02:11;;;;;;;39.30;5.45;;;;;;;-146.27;92.56;31886.88;5068937;28;20400;-70
2024/01/02 08:04:37;;;;;;;35.63;5.32;;;;;;;-146.27;93.60;32005.88;5061732;28;20025;-70
2024/01/02 08:07:04;;;;;;;38.13;5.32;;;;;;;-146.27;93.61;32063.41;5063417;28;20032;-70
2024/01/02 08:09:29;;;;;;;45.55;4.95;;;;;;;-146.27;93.60;31982.09;5068146;28;20032;-72
2024/01/02 08:11:55;;;;;;;29.42;4.70;;;;;;;-146.27;91.90;31867.03;5064797;28;20047;-71
2024/01/02 08:14:21;;;;;;;36.25;5.93;;;;;;;-146.27;92.20;31892.84;5063554;28;20032;-72
2024/01/02 08:16:47;;;;;;;32.95;4.53;;;;;;;-146.27;92.10;31880.94;5066608;28;20477;-72
2024/01/02 08:19:13;;;;;;;35.40;4.30;;;;;;;-146.27;91.93;31795.66;5069458;28;20036;-71
2024/01/02 08:21:39;;;;;;;34.15;4.78;;;;;;;-146.27;91.13;31813.50;5064948;28;20498;-70
2024/01/02 08:24:05;;;;;;;34.53;4.50;;;;;;;-146.27;90.46;31773.81;5066529;28;20111;-72
2024/01/02 08:26:31;;;;;;;33.97;4.85;;;;;;;-146.27;90.78;31789.69;5065172;28;20025;-72
2024/01/02 08:28:58;;;;;;;30.50;4.28;;;;;;;-146.27;90.29;31827.38;5067914;28;20024;-71
2024/01/02 08:31:24;;;;;;;43.30;5.47;;;;;;;-146.27;91.46;31851.19;5072527;28;20396;-71
2024/01/02 08:33:49;;;;;;;29.30;3.83;;;;;;;-146.27;89.96;31714.34;5071380;28;20033;-71
2024/01/02 08:36:15;;;;;;;30.10;4.70;;;;;;;-146.27;89.29;31718.28;5057578;28;20029;-71
2024/01/02 08:38:40;;;;;;;25.85;5.85;;;;;;;-146.27;89.40;31779.78;5066008;28;20020;-71
2024/01/02 08:41:07;;;;;;;31.33;4.85;;;;;;;-146.27;90.22;31882.91;5069582;28;20107;-72
2024/01/02 08:43:32;;;;;;;24.08;3.85;;;;;;;-146.27;89.70;31811.50;5070880;28;21304;-69
2024/01/02 08:45:58;;;;;;;27.95;4.35;;;;;;;-146.27;89.20;31746.06;5059267;28;20078;-69
2024/01/02 08:48:23;;;;;;;30.17;4.22;;;;;;;-146.27;88.53;31696.47;5064380;28;20067;-69
2024/01/02 08:50:48;;;;;;;27.70;4.47;;;;;;;-146.27;88.14;31761.94;5067074;28;20043;-69
2024/01/02 08:53:14;;;;;;;31.48;4.82;;;;;;;-146.27;88.60;31728.22;5067010;28;20410;-69
2024/01/02 08:55:40;;;;;;;31.15;4.68;;;;;;;-146.27;88.35;31712.34;5063480;28;20418;-71
2024/01/02 08:58:06;;;;;;;25.30;3.35;;;;;;;-146.27;89.02;31819.44;5063275;28;20086;-70
2024/01/02 09:00:32;;;;;;;30.35;4.22;;;;;;;-146.27;87.81;31635.00;5067942;28;20267;-70
2024/01/02 09:02:59;;;;;;;26.27;4.68;;;;;;;-146.27;88.10;31757.97;5065483;28;20451;-70
2024/01/02 09:05:26;;;;;;;35.17;4.32;;;;;;;-146.27;87.97;31692.50;5078940;28;20047;-71
2024/01/02 09:07:52;;;;;;;34.20;4.10;;;;;;;-146.27;89.52;31869.03;5067455;28;20074;-69
2024/01/02 09:10:17;;;;;;;39.42;6.45;;;;;;;-146.27;89.14;31819.44;5064709;28;20540;-70
2024/01/02 09:12:43;;;;;;;35.28;5.10;;;;;;;-146.27;89.33;31736.16;5066567;28;20032;-71
2024/01/02 09:15:08;;;;;;;39.33;5.53;;;;;;;-146.27;90.73;31825.41;5065691;28;20028;-70
2024/01/02 09:17:34;;;;;;;42.53;6.05;;;;;;;-146.27;90.12;31744.06;5078237;28;20035;-72
2024/01/02 09:19:59;;;;;;;32.53;4.82;;;;;;;-146.27;90.91;31843.25;5063811;28;20420;-73
2024/01/02 09:22:25;;;;;;;33.22;5.60;;;;;;;-146.27;91.15;31783.75;5076642;28;20024;-71
2024/01/02 09:24:52;;;;;;;37.10;5.68;;;;;;;-146.27;91.97;31873.00;5061956;28;21603;-71
2024/01/02 09:27:18;;;;;;;46.17;6.65;;;;;;;-146.27;93.37;31932.50;5065264;28;20077;-70
2024/01/02 09:29:44;;;;;;;43.85;7.05;;;;;;;-146.27;94.13;31958.28;5071988;28;20032;-71
2024/01/02 09:32:10;;;;;;;41.47;6.53;;;;;;;-146.27;94.38;31906.72;5062451;28;20033;-71
2024/01/02 09:34:36;;;;;;;58.30;6.55;;;;;;;-146.27;92.89;31831.34;5071831;28;20021;-71
2024/01/02 09:37:03;;;;;;;52.80;5.82;;;;;;;-146.27;92.68;31789.69;5073800;28;20500;-71
2024/01/02 09:39:29;;;;;;;30.17;4.97;;;;;;;-146.27;92.75;31791.69;5063043;28;20033;-70
2024/01/02 09:42:15;;;;;;;52.17;5.22;;;;;;;-146.27;92.19;31672.69;5067746;28;20027;-70
2024/01/02 09:45:11;;;;;;;45.83;5.20;;;;;;;-146.27;92.41;31696.47;5072036;28;20361;-71
2024/01/02 09:48:16;;;;;;;42.65;5.40;;;;;;;-146.27;92.23;31621.13;5070746;28;20039;-70
2024/01/02 09:50:44;;;;;;;40.80;5.03;;;;;;;-146.27;91.90;31670.69;5058820;28;20017;-70
2024/01/02 09:53:31;;;;;;;30.70;4.18;;;;;;;-146.27;92.12;31670.69;5069807;28;20035;-70
2024/01/02 09:55:56;;;;;;;34.88;4.20;;;;;;;-146.27;91.08;31617.16;5059697;28;20033;-71
2024/01/02 09:58:34;;;;;;;37.67;4.55;;;;;;;-146.27;92.61;31839.28;5065470;28;20056;-70
2024/01/02 10:01:21;;;;;;;23.73;3.30;;;;;;;-146.27;92.70;31740.13;5065697;28;20099;-71
2024/01/02 10:04:11;;;;;;;22.10;3.50;;;;;;;-146.27;91.45;31563.59;5070294;28;20147;-71
2024/01/02 10:06:52;;;;;;;36.20;5.18;;;;;;;-146.27;91.60;31696.47;5067701;28;20021;-70
2024/01/02 10:09:35;;;;;;;20.38;2.90;;;;;;;-146.27;91.28;31720.28;5064724;28;20024;-70
2024/01/02 10:12:19;;;;;;;27.25;4.65;;;;;;;-146.27;92.01;31720.28;5069771;28;20032;-71
2024/01/02 10:15:13;;;;;;;27.17;3.30;;;;;;;-146.27;92.44;31714.34;5068593;28;20025;-73
2024/01/02 10:17:58;;;;;;;25.88;4.13;;;;;;;-146.27;90.59;31569.56;5069522;28;20419;-70
2024/01/02 10:20:45;;;;;;;22.30;4.35;;;;;;;-146.27;91.69;31690.53;5065844;28;20431;-72
2024/01/02 10:23:17;;;;;;;18.02;2.92;;;;;;;-146.27;90.63;31565.59;5068847;28;20029;-69
2024/01/02 10:25:42;;;;;;;16.38;2.83;;;;;;;-146.27;90.84;31625.09;5063763;28;20100;-69
2024/01/02 10:28:18;;;;;;;22.25;3.50;;;;;;;-146.27;90.83;31613.19;5063380;28;20060;-71
2024/01/02 10:31:19;;;;;;;26.63;3.33;;;;;;;-146.27;91.19;31700.44;5074088;28;20301;-71
2024/01/02 10:33:55;;;;;;;17.55;2.88;;;;;;;-146.27;90.15;31553.69;5057344;28;20033;-71
2024/01/02 10:36:22;;;;;;;23.05;3.38;;;;;;;-146.27;90.39;31561.63;5065454;28;20036;-72
2024/01/02 10:39:16;;;;;;;15.43;2.78;;;;;;;-146.27;89.75;31492.22;5057334;28;20024;-69
2024/01/02 10:41:52;;;;;;;19.52;2.55;;;;;;;-146.27;91.38;31625.09;5068203;28;20044;-70
2024/01/02 10:44:23;;;;;;;13.90;3.15;;;;;;;-146.27;90.36;31539.81;5069878;28;20499;-71
2024/01/02 10:47:27;;;;;;;14.60;3.45;;;;;;;-146.27;90.41;31539.81;5062165;28;20033;-71
2024/01/02 10:49:59;;;;;;;16.02;3.15;;;;;;;-146.27;90.26;31470.38;5048768;28;20079;-72
2024/01/02 10:52:46;;;;;;;15.77;3.33;;;;;;;-146.27;91.12;31579.47;5060295;28;20024;-71
2024/01/02 10:55:23;;;;;;;12.13;2.55;;;;;;;-146.27;91.72;31593.34;5067043;28;20017;-71
2024/01/02 10:58:33;;;;;;;14.90;3.10;;;;;;;-146.27;91.00;31585.41;5070786;28;20044;-71
2024/01/02 11:01:14;;;;;;;11.02;3.20;;;;;;;-146.27;91.50;31631.03;5043226;28;20037;-72
2024/01/02 11:04:11;;;;;;;11.23;2.85;;;;;;;-146.27;91.86;31583.44;5065706;28;20774;-71
2024/01/02 11:06:44;;;;;;;9.38;2.10;;;;;;;-146.27;92.32;31636.97;5051244;28;20166;-71
2024/01/02 11:09:15;;;;;;;3.83;2.00;;;;;;;-146.27;92.67;31672.69;5065448;28;20025;-71
2024/01/02 11:11:41;;;;;;;9.30;2.25;;;;;;;-146.27;93.15;31708.38;5069676;28;20048;-71
2024/01/02 11:14:11;;;;;;;6.60;2.20;;;;;;;-146.27;92.20;31494.19;5064933;28;20040;-69